sensor_id;sensor_type;location;lat;lon;timestamp;P1;durP1;ratioP1;P2;durP2;ratioP2
9328;SDS011;4703;48.748;19.142;2022-09-29T00:01:04;4.30;;;4.00;;
9328;SDS011;4703;48.748;19.142;2022-09-29T00:03:31;3.70;;;3.40;;
9328;SDS011;4703;48.748;19.142;2022-09-29T00:05:59;4.20;;;3.70;;
9328;SDS011;4703;48.748;19.142;2022-09-29T00:08:26;5.70;;;4.40;;
9328;SDS011;4703;48.748;19.142;2022-09-29T00:10:57;3.80;;;3.40;;
9328;SDS011;4703;48.748;19.142;2022-09-29T00:13:23;4.07;;;3.60;;
9328;SDS011;4703;48.748;19.142;2022-09-29T00:15:58;4.07;;;3.77;;
9328;SDS011;4703;48.748;19.142;2022-09-29T00:18:27;6.53;;;3.93;;
9328;SDS011;4703;48.748;19.142;2022-09-29T00:21:00;3.43;;;3.20;;
9328;SDS011;4703;48.748;19.142;2022-09-29T00:23:41;3.47;;;3.17;;
9328;SDS011;4703;48.748;19.142;2022-09-29T00:26:12;3.43;;;3.20;;
9328;SDS011;4703;48.748;19.142;2022-09-29T00:28:49;3.87;;;3.40;;
9328;SDS011;4703;48.748;19.142;2022-09-29T00:31:19;3.17;;;2.97;;
9328;SDS011;4703;48.748;19.142;2022-09-29T00:33:46;3.90;;;3.27;;
9328;SDS011;4703;48.748;19.142;2022-09-29T00:36:14;3.63;;;3.20;;
9328;SDS011;4703;48.748;19.142;2022-09-29T00:38:44;3.73;;;3.37;;
9328;SDS011;4703;48.748;19.142;2022-09-29T00:41:13;3.20;;;3.00;;
9328;SDS011;4703;48.748;19.142;2022-09-29T00:51:51;3.97;;;3.30;;
9328;SDS011;4703;48.748;19.142;2022-09-29T00:54:52;2.83;;;2.63;;
9328;SDS011;4703;48.748;19.142;2022-09-29T00:58:21;2.97;;;2.77;;
9328;SDS011;4703;48.748;19.142;2022-09-29T01:00:31;5.63;;;3.10;;
9328;SDS011;4703;48.748;19.142;2022-09-29T01:03:00;4.97;;;3.73;;
9328;SDS011;4703;48.748;19.142;2022-09-29T01:05:49;2.57;;;2.37;;
9328;SDS011;4703;48.748;19.142;2022-09-29T01:11:08;2.97;;;2.77;;
9328;SDS011;4703;48.748;19.142;2022-09-29T01:13:37;3.03;;;2.83;;
9328;SDS011;4703;48.748;19.142;2022-09-29T01:16:04;3.33;;;3.00;;
9328;SDS011;4703;48.748;19.142;2022-09-29T01:18:31;3.17;;;2.97;;
9328;SDS011;4703;48.748;19.142;2022-09-29T01:23:55;3.50;;;3.20;;
9328;SDS011;4703;48.748;19.142;2022-09-29T01:27:13;3.73;;;3.23;;
9328;SDS011;4703;48.748;19.142;2022-09-29T01:32:32;3.37;;;3.07;;
9328;SDS011;4703;48.748;19.142;2022-09-29T01:38:30;5.40;;;3.40;;
9328;SDS011;4703;48.748;19.142;2022-09-29T01:47:12;3.23;;;2.93;;
9328;SDS011;4703;48.748;19.142;2022-09-29T01:50:02;3.33;;;2.50;;
9328;SDS011;4703;48.748;19.142;2022-09-29T01:52:36;2.60;;;2.40;;
9328;SDS011;4703;48.748;19.142;2022-09-29T01:55:10;3.30;;;3.00;;
9328;SDS011;4703;48.748;19.142;2022-09-29T01:57:49;4.30;;;3.90;;
9328;SDS011;4703;48.748;19.142;2022-09-29T02:00:20;2.73;;;2.53;;
9328;SDS011;4703;48.748;19.142;2022-09-29T02:02:50;3.50;;;3.20;;
9328;SDS011;4703;48.748;19.142;2022-09-29T02:08:39;3.30;;;3.00;;
9328;SDS011;4703;48.748;19.142;2022-09-29T02:11:15;3.33;;;2.67;;
9328;SDS011;4703;48.748;19.142;2022-09-29T02:13:48;3.10;;;2.90;;
9328;SDS011;4703;48.748;19.142;2022-09-29T02:16:22;2.50;;;2.30;;
9328;SDS011;4703;48.748;19.142;2022-09-29T02:19:05;2.20;;;2.03;;
9328;SDS011;4703;48.748;19.142;2022-09-29T02:21:43;2.23;;;2.00;;
9328;SDS011;4703;48.748;19.142;2022-09-29T02:24:10;2.33;;;2.23;;
9328;SDS011;4703;48.748;19.142;2022-09-29T02:26:38;2.10;;;2.00;;
9328;SDS011;4703;48.748;19.142;2022-09-29T02:29:06;2.30;;;2.10;;
9328;SDS011;4703;48.748;19.142;2022-09-29T02:31:34;2.53;;;2.33;;
9328;SDS011;4703;48.748;19.142;2022-09-29T02:34:03;2.60;;;2.13;;
9328;SDS011;4703;48.748;19.142;2022-09-29T02:46:04;3.20;;;3.00;;
9328;SDS011;4703;48.748;19.142;2022-09-29T02:57:56;2.80;;;2.60;;
9328;SDS011;4703;48.748;19.142;2022-09-29T03:00:32;2.97;;;2.77;;
9328;SDS011;4703;48.748;19.142;2022-09-29T03:02:59;2.80;;;2.60;;
9328;SDS011;4703;48.748;19.142;2022-09-29T03:05:27;2.63;;;2.43;;
9328;SDS011;4703;48.748;19.142;2022-09-29T03:07:54;2.83;;;2.63;;
9328;SDS011;4703;48.748;19.142;2022-09-29T03:10:20;2.60;;;2.40;;
9328;SDS011;4703;48.748;19.142;2022-09-29T03:12:53;3.17;;;2.90;;
9328;SDS011;4703;48.748;19.142;2022-09-29T03:15:20;2.50;;;2.30;;
9328;SDS011;4703;48.748;19.142;2022-09-29T03:17:47;2.90;;;2.67;;
9328;SDS011;4703;48.748;19.142;2022-09-29T03:20:14;2.83;;;2.63;;
9328;SDS011;4703;48.748;19.142;2022-09-29T03:22:41;2.90;;;2.70;;
9328;SDS011;4703;48.748;19.142;2022-09-29T03:25:09;3.37;;;3.07;;
9328;SDS011;4703;48.748;19.142;2022-09-29T03:27:38;3.50;;;3.20;;
9328;SDS011;4703;48.748;19.142;2022-09-29T03:30:05;3.50;;;3.20;;
9328;SDS011;4703;48.748;19.142;2022-09-29T03:32:33;3.77;;;3.57;;
9328;SDS011;4703;48.748;19.142;2022-09-29T03:35:00;4.10;;;3.80;;
9328;SDS011;4703;48.748;19.142;2022-09-29T03:37:26;4.70;;;4.30;;
9328;SDS011;4703;48.748;19.142;2022-09-29T03:39:54;7.47;;;6.87;;
9328;SDS011;4703;48.748;19.142;2022-09-29T03:42:21;7.73;;;7.07;;
9328;SDS011;4703;48.748;19.142;2022-09-29T03:44:49;7.70;;;6.90;;
9328;SDS011;4703;48.748;19.142;2022-09-29T03:47:16;7.10;;;6.40;;
9328;SDS011;4703;48.748;19.142;2022-09-29T03:49:43;6.10;;;5.47;;
9328;SDS011;4703;48.748;19.142;2022-09-29T03:52:10;5.50;;;4.87;;
9328;SDS011;4703;48.748;19.142;2022-09-29T03:54:38;5.03;;;4.53;;
9328;SDS011;4703;48.748;19.142;2022-09-29T03:57:04;2.77;;;2.50;;
9328;SDS011;4703;48.748;19.142;2022-09-29T03:59:31;2.70;;;2.50;;
9328;SDS011;4703;48.748;19.142;2022-09-29T04:01:58;3.30;;;3.07;;
9328;SDS011;4703;48.748;19.142;2022-09-29T04:04:25;2.10;;;2.00;;
9328;SDS011;4703;48.748;19.142;2022-09-29T04:06:52;2.50;;;2.30;;
9328;SDS011;4703;48.748;19.142;2022-09-29T04:09:19;2.73;;;2.53;;
9328;SDS011;4703;48.748;19.142;2022-09-29T04:11:46;2.93;;;2.20;;
9328;SDS011;4703;48.748;19.142;2022-09-29T04:14:14;2.90;;;2.70;;
9328;SDS011;4703;48.748;19.142;2022-09-29T04:16:40;2.70;;;2.50;;
9328;SDS011;4703;48.748;19.142;2022-09-29T04:19:07;2.40;;;2.13;;
9328;SDS011;4703;48.748;19.142;2022-09-29T04:21:35;2.97;;;2.37;;
9328;SDS011;4703;48.748;19.142;2022-09-29T04:24:02;2.47;;;2.23;;
9328;SDS011;4703;48.748;19.142;2022-09-29T04:26:29;2.10;;;2.00;;
9328;SDS011;4703;48.748;19.142;2022-09-29T04:28:56;3.17;;;2.70;;
9328;SDS011;4703;48.748;19.142;2022-09-29T04:31:23;2.40;;;2.30;;
9328;SDS011;4703;48.748;19.142;2022-09-29T04:33:50;3.00;;;2.80;;
9328;SDS011;4703;48.748;19.142;2022-09-29T04:36:17;3.07;;;2.77;;
9328;SDS011;4703;48.748;19.142;2022-09-29T04:38:45;2.80;;;2.60;;
9328;SDS011;4703;48.748;19.142;2022-09-29T04:41:12;3.60;;;3.27;;
9328;SDS011;4703;48.748;19.142;2022-09-29T04:43:38;3.73;;;3.43;;
9328;SDS011;4703;48.748;19.142;2022-09-29T04:46:06;3.97;;;3.23;;
9328;SDS011;4703;48.748;19.142;2022-09-29T04:48:34;4.93;;;4.50;;
9328;SDS011;4703;48.748;19.142;2022-09-29T04:51:02;4.00;;;3.70;;
9328;SDS011;4703;48.748;19.142;2022-09-29T04:53:30;6.70;;;3.70;;
9328;SDS011;4703;48.748;19.142;2022-09-29T04:55:57;4.17;;;3.77;;
9328;SDS011;4703;48.748;19.142;2022-09-29T04:58:24;4.27;;;3.53;;
9328;SDS011;4703;48.748;19.142;2022-09-29T05:00:51;4.33;;;3.77;;
9328;SDS011;4703;48.748;19.142;2022-09-29T05:03:18;4.33;;;4.03;;
9328;SDS011;4703;48.748;19.142;2022-09-29T05:05:45;4.17;;;3.77;;
9328;SDS011;4703;48.748;19.142;2022-09-29T05:08:12;7.20;;;3.93;;
9328;SDS011;4703;48.748;19.142;2022-09-29T05:10:39;4.70;;;4.27;;
9328;SDS011;4703;48.748;19.142;2022-09-29T05:13:06;4.10;;;3.80;;
9328;SDS011;4703;48.748;19.142;2022-09-29T05:15:32;3.90;;;3.53;;
9328;SDS011;4703;48.748;19.142;2022-09-29T05:18:00;3.50;;;3.20;;
9328;SDS011;4703;48.748;19.142;2022-09-29T05:20:28;3.47;;;3.17;;
9328;SDS011;4703;48.748;19.142;2022-09-29T05:23:05;3.90;;;3.60;;
9328;SDS011;4703;48.748;19.142;2022-09-29T05:25:38;3.23;;;3.03;;
9328;SDS011;4703;48.748;19.142;2022-09-29T05:28:05;3.67;;;3.37;;
9328;SDS011;4703;48.748;19.142;2022-09-29T05:30:33;3.83;;;3.53;;
9328;SDS011;4703;48.748;19.142;2022-09-29T05:33:00;3.83;;;3.43;;
9328;SDS011;4703;48.748;19.142;2022-09-29T05:35:27;4.10;;;3.70;;
9328;SDS011;4703;48.748;19.142;2022-09-29T05:37:54;4.50;;;4.10;;
9328;SDS011;4703;48.748;19.142;2022-09-29T05:40:21;3.70;;;3.40;;
9328;SDS011;4703;48.748;19.142;2022-09-29T05:42:50;4.17;;;3.87;;
9328;SDS011;4703;48.748;19.142;2022-09-29T05:45:17;4.43;;;4.03;;
9328;SDS011;4703;48.748;19.142;2022-09-29T05:47:44;5.00;;;3.73;;
9328;SDS011;4703;48.748;19.142;2022-09-29T05:50:12;4.10;;;3.80;;
9328;SDS011;4703;48.748;19.142;2022-09-29T05:52:39;4.17;;;3.77;;
9328;SDS011;4703;48.748;19.142;2022-09-29T05:55:07;4.27;;;3.97;;
9328;SDS011;4703;48.748;19.142;2022-09-29T05:57:35;3.80;;;3.50;;
9328;SDS011;4703;48.748;19.142;2022-09-29T06:00:02;3.97;;;3.60;;
9328;SDS011;4703;48.748;19.142;2022-09-29T06:02:31;4.63;;;3.83;;
9328;SDS011;4703;48.748;19.142;2022-09-29T06:04:59;4.40;;;4.10;;
9328;SDS011;4703;48.748;19.142;2022-09-29T06:07:26;4.63;;;3.73;;
9328;SDS011;4703;48.748;19.142;2022-09-29T06:09:53;4.60;;;4.20;;
9328;SDS011;4703;48.748;19.142;2022-09-29T06:12:20;6.03;;;5.43;;
9328;SDS011;4703;48.748;19.142;2022-09-29T06:14:47;4.83;;;4.33;;
9328;SDS011;4703;48.748;19.142;2022-09-29T06:17:14;5.17;;;4.50;;
9328;SDS011;4703;48.748;19.142;2022-09-29T06:19:41;4.63;;;4.10;;
9328;SDS011;4703;48.748;19.142;2022-09-29T06:22:10;5.20;;;4.40;;
9328;SDS011;4703;48.748;19.142;2022-09-29T06:24:37;4.93;;;4.27;;
9328;SDS011;4703;48.748;19.142;2022-09-29T06:27:04;3.60;;;3.30;;
9328;SDS011;4703;48.748;19.142;2022-09-29T06:29:31;3.97;;;3.57;;
9328;SDS011;4703;48.748;19.142;2022-09-29T06:31:57;4.20;;;3.77;;
9328;SDS011;4703;48.748;19.142;2022-09-29T06:34:24;3.13;;;2.90;;
9328;SDS011;4703;48.748;19.142;2022-09-29T06:36:51;3.17;;;2.80;;
9328;SDS011;4703;48.748;19.142;2022-09-29T06:39:37;3.60;;;3.30;;
9328;SDS011;4703;48.748;19.142;2022-09-29T06:42:04;4.40;;;3.50;;
9328;SDS011;4703;48.748;19.142;2022-09-29T06:44:31;2.93;;;2.70;;
9328;SDS011;4703;48.748;19.142;2022-09-29T06:46:58;3.60;;;2.67;;
9328;SDS011;4703;48.748;19.142;2022-09-29T06:49:25;7.03;;;4.27;;
9328;SDS011;4703;48.748;19.142;2022-09-29T06:51:52;5.33;;;4.83;;
9328;SDS011;4703;48.748;19.142;2022-09-29T06:54:20;5.23;;;4.37;;
9328;SDS011;4703;48.748;19.142;2022-09-29T06:56:50;4.13;;;3.17;;
9328;SDS011;4703;48.748;19.142;2022-09-29T06:59:19;2.60;;;2.30;;
9328;SDS011;4703;48.748;19.142;2022-09-29T07:01:46;2.87;;;2.10;;
9328;SDS011;4703;48.748;19.142;2022-09-29T07:04:16;2.00;;;1.70;;
9328;SDS011;4703;48.748;19.142;2022-09-29T07:06:45;1.90;;;1.80;;
9328;SDS011;4703;48.748;19.142;2022-09-29T07:09:13;2.70;;;2.50;;
9328;SDS011;4703;48.748;19.142;2022-09-29T07:11:43;3.73;;;2.90;;
9328;SDS011;4703;48.748;19.142;2022-09-29T07:14:13;2.37;;;2.17;;
9328;SDS011;4703;48.748;19.142;2022-09-29T07:16:42;2.37;;;2.17;;
9328;SDS011;4703;48.748;19.142;2022-09-29T07:19:09;2.33;;;2.13;;
9328;SDS011;4703;48.748;19.142;2022-09-29T07:21:36;3.00;;;2.50;;
9328;SDS011;4703;48.748;19.142;2022-09-29T07:24:03;3.13;;;2.93;;
9328;SDS011;4703;48.748;19.142;2022-09-29T07:26:30;2.20;;;2.10;;
9328;SDS011;4703;48.748;19.142;2022-09-29T07:28:57;1.97;;;1.40;;
9328;SDS011;4703;48.748;19.142;2022-09-29T07:31:24;2.20;;;1.73;;
9328;SDS011;4703;48.748;19.142;2022-09-29T07:33:51;2.03;;;1.83;;
9328;SDS011;4703;48.748;19.142;2022-09-29T07:36:19;1.87;;;1.70;;
9328;SDS011;4703;48.748;19.142;2022-09-29T07:38:47;2.97;;;1.50;;
9328;SDS011;4703;48.748;19.142;2022-09-29T07:41:16;1.60;;;1.50;;
9328;SDS011;4703;48.748;19.142;2022-09-29T07:43:45;1.60;;;1.40;;
9328;SDS011;4703;48.748;19.142;2022-09-29T07:46:12;1.87;;;1.73;;
9328;SDS011;4703;48.748;19.142;2022-09-29T07:48:39;1.20;;;1.10;;
9328;SDS011;4703;48.748;19.142;2022-09-29T07:51:11;1.50;;;1.40;;
9328;SDS011;4703;48.748;19.142;2022-09-29T07:53:41;1.90;;;1.50;;
9328;SDS011;4703;48.748;19.142;2022-09-29T07:56:09;2.53;;;2.20;;
9328;SDS011;4703;48.748;19.142;2022-09-29T07:58:44;2.53;;;2.00;;
9328;SDS011;4703;48.748;19.142;2022-09-29T08:01:13;2.50;;;2.23;;
9328;SDS011;4703;48.748;19.142;2022-09-29T08:03:48;3.27;;;2.53;;
9328;SDS011;4703;48.748;19.142;2022-09-29T08:06:17;2.53;;;1.60;;
9328;SDS011;4703;48.748;19.142;2022-09-29T08:08:45;1.73;;;1.57;;
9328;SDS011;4703;48.748;19.142;2022-09-29T08:11:28;2.53;;;1.53;;
9328;SDS011;4703;48.748;19.142;2022-09-29T08:13:58;1.73;;;1.63;;
9328;SDS011;4703;48.748;19.142;2022-09-29T08:16:26;2.00;;;1.90;;
9328;SDS011;4703;48.748;19.142;2022-09-29T08:18:53;1.73;;;1.40;;
9328;SDS011;4703;48.748;19.142;2022-09-29T08:21:20;2.03;;;1.93;;
9328;SDS011;4703;48.748;19.142;2022-09-29T08:23:47;2.87;;;1.77;;
9328;SDS011;4703;48.748;19.142;2022-09-29T08:26:15;1.70;;;1.60;;
9328;SDS011;4703;48.748;19.142;2022-09-29T08:29:02;1.50;;;1.40;;
9328;SDS011;4703;48.748;19.142;2022-09-29T08:31:34;1.93;;;1.50;;
9328;SDS011;4703;48.748;19.142;2022-09-29T08:34:03;1.43;;;1.30;;
9328;SDS011;4703;48.748;19.142;2022-09-29T08:36:30;1.50;;;1.40;;
9328;SDS011;4703;48.748;19.142;2022-09-29T08:38:57;1.97;;;1.83;;
9328;SDS011;4703;48.748;19.142;2022-09-29T08:44:10;1.87;;;1.60;;
9328;SDS011;4703;48.748;19.142;2022-09-29T08:49:44;1.50;;;1.30;;
9328;SDS011;4703;48.748;19.142;2022-09-29T08:52:20;2.33;;;2.00;;
9328;SDS011;4703;48.748;19.142;2022-09-29T08:54:54;7.10;;;5.80;;
9328;SDS011;4703;48.748;19.142;2022-09-29T08:57:45;9.50;;;7.27;;
9328;SDS011;4703;48.748;19.142;2022-09-29T09:00:14;5.23;;;4.10;;
9328;SDS011;4703;48.748;19.142;2022-09-29T09:13:58;1.97;;;1.80;;
9328;SDS011;4703;48.748;19.142;2022-09-29T09:16:42;2.13;;;2.00;;
9328;SDS011;4703;48.748;19.142;2022-09-29T09:22:37;1.80;;;1.70;;
9328;SDS011;4703;48.748;19.142;2022-09-29T09:25:37;1.90;;;1.80;;
9328;SDS011;4703;48.748;19.142;2022-09-29T09:33:38;1.77;;;1.67;;
9328;SDS011;4703;48.748;19.142;2022-09-29T09:39:05;2.30;;;1.27;;
9328;SDS011;4703;48.748;19.142;2022-09-29T09:41:44;3.10;;;1.80;;
9328;SDS011;4703;48.748;19.142;2022-09-29T09:44:16;2.10;;;1.90;;
9328;SDS011;4703;48.748;19.142;2022-09-29T09:47:08;3.30;;;1.80;;
9328;SDS011;4703;48.748;19.142;2022-09-29T09:49:48;1.97;;;1.23;;
9328;SDS011;4703;48.748;19.142;2022-09-29T09:52:26;1.10;;;1.10;;
9328;SDS011;4703;48.748;19.142;2022-09-29T09:55:20;1.50;;;1.40;;
9328;SDS011;4703;48.748;19.142;2022-09-29T10:00:29;1.40;;;1.30;;
9328;SDS011;4703;48.748;19.142;2022-09-29T10:03:03;1.80;;;1.70;;
9328;SDS011;4703;48.748;19.142;2022-09-29T10:05:37;1.13;;;1.13;;
9328;SDS011;4703;48.748;19.142;2022-09-29T10:08:49;1.47;;;1.37;;
9328;SDS011;4703;48.748;19.142;2022-09-29T10:11:11;1.30;;;1.20;;
9328;SDS011;4703;48.748;19.142;2022-09-29T10:14:01;1.70;;;1.60;;
9328;SDS011;4703;48.748;19.142;2022-09-29T10:16:45;1.10;;;1.10;;
9328;SDS011;4703;48.748;19.142;2022-09-29T10:22:25;1.60;;;1.40;;
9328;SDS011;4703;48.748;19.142;2022-09-29T10:25:05;1.57;;;1.17;;
9328;SDS011;4703;48.748;19.142;2022-09-29T10:27:42;1.47;;;1.40;;
9328;SDS011;4703;48.748;19.142;2022-09-29T10:30:24;1.73;;;1.50;;
9328;SDS011;4703;48.748;19.142;2022-09-29T10:33:01;1.80;;;1.70;;
9328;SDS011;4703;48.748;19.142;2022-09-29T10:35:37;1.67;;;1.57;;
9328;SDS011;4703;48.748;19.142;2022-09-29T10:38:07;1.87;;;1.77;;
9328;SDS011;4703;48.748;19.142;2022-09-29T10:43:25;2.30;;;2.13;;
9328;SDS011;4703;48.748;19.142;2022-09-29T10:49:11;6.70;;;1.80;;
9328;SDS011;4703;48.748;19.142;2022-09-29T10:54:53;2.50;;;2.30;;
9328;SDS011;4703;48.748;19.142;2022-09-29T10:57:27;2.43;;;2.23;;
9328;SDS011;4703;48.748;19.142;2022-09-29T10:59:57;2.30;;;2.20;;
9328;SDS011;4703;48.748;19.142;2022-09-29T11:04:59;2.63;;;2.43;;
9328;SDS011;4703;48.748;19.142;2022-09-29T11:07:30;2.90;;;2.70;;
9328;SDS011;4703;48.748;19.142;2022-09-29T11:09:59;15.70;;;12.07;;
9328;SDS011;4703;48.748;19.142;2022-09-29T11:15:00;5.97;;;4.40;;
9328;SDS011;4703;48.748;19.142;2022-09-29T11:17:29;3.70;;;3.20;;
9328;SDS011;4703;48.748;19.142;2022-09-29T11:20:03;2.60;;;2.10;;
9328;SDS011;4703;48.748;19.142;2022-09-29T11:31:37;3.70;;;2.90;;
9328;SDS011;4703;48.748;19.142;2022-09-29T11:40:37;2.93;;;2.73;;
9328;SDS011;4703;48.748;19.142;2022-09-29T11:46:34;2.43;;;1.80;;
9328;SDS011;4703;48.748;19.142;2022-09-29T11:49:33;2.90;;;2.27;;
9328;SDS011;4703;48.748;19.142;2022-09-29T12:01:44;2.80;;;2.57;;
9328;SDS011;4703;48.748;19.142;2022-09-29T12:07:18;2.77;;;2.57;;
9328;SDS011;4703;48.748;19.142;2022-09-29T12:13:02;2.97;;;2.40;;
9328;SDS011;4703;48.748;19.142;2022-09-29T12:15:52;2.70;;;2.50;;
9328;SDS011;4703;48.748;19.142;2022-09-29T12:19:10;2.90;;;2.63;;
9328;SDS011;4703;48.748;19.142;2022-09-29T12:21:26;2.63;;;2.43;;
9328;SDS011;4703;48.748;19.142;2022-09-29T12:24:15;2.73;;;2.53;;
9328;SDS011;4703;48.748;19.142;2022-09-29T12:27:04;3.13;;;2.93;;
9328;SDS011;4703;48.748;19.142;2022-09-29T12:29:38;3.50;;;3.20;;
9328;SDS011;4703;48.748;19.142;2022-09-29T12:32:17;3.83;;;3.27;;
9328;SDS011;4703;48.748;19.142;2022-09-29T12:34:58;4.20;;;3.20;;
9328;SDS011;4703;48.748;19.142;2022-09-29T12:40:33;3.80;;;3.50;;
9328;SDS011;4703;48.748;19.142;2022-09-29T12:43:08;4.00;;;3.70;;
9328;SDS011;4703;48.748;19.142;2022-09-29T12:51:38;4.00;;;3.60;;
9328;SDS011;4703;48.748;19.142;2022-09-29T12:54:11;3.60;;;3.30;;
9328;SDS011;4703;48.748;19.142;2022-09-29T12:57:01;4.17;;;3.87;;
9328;SDS011;4703;48.748;19.142;2022-09-29T13:11:33;3.43;;;3.13;;
9328;SDS011;4703;48.748;19.142;2022-09-29T13:20:04;3.27;;;3.00;;
9328;SDS011;4703;48.748;19.142;2022-09-29T13:28:42;5.23;;;4.60;;
9328;SDS011;4703;48.748;19.142;2022-09-29T13:31:18;6.20;;;3.73;;
9328;SDS011;4703;48.748;19.142;2022-09-29T13:33:59;4.73;;;4.27;;
9328;SDS011;4703;48.748;19.142;2022-09-29T13:36:29;4.23;;;3.93;;
9328;SDS011;4703;48.748;19.142;2022-09-29T13:39:06;4.97;;;4.57;;
9328;SDS011;4703;48.748;19.142;2022-09-29T13:41:46;3.63;;;3.33;;
9328;SDS011;4703;48.748;19.142;2022-09-29T13:46:43;4.40;;;4.00;;
9328;SDS011;4703;48.748;19.142;2022-09-29T13:51:56;4.73;;;4.33;;
9328;SDS011;4703;48.748;19.142;2022-09-29T13:54:48;3.80;;;3.50;;
9328;SDS011;4703;48.748;19.142;2022-09-29T14:08:06;4.27;;;3.97;;
9328;SDS011;4703;48.748;19.142;2022-09-29T14:10:59;4.37;;;3.97;;
9328;SDS011;4703;48.748;19.142;2022-09-29T14:30:36;9.47;;;5.00;;
9328;SDS011;4703;48.748;19.142;2022-09-29T14:36:06;4.50;;;4.10;;
9328;SDS011;4703;48.748;19.142;2022-09-29T14:38:41;4.23;;;3.90;;
9328;SDS011;4703;48.748;19.142;2022-09-29T14:41:31;4.13;;;3.50;;
9328;SDS011;4703;48.748;19.142;2022-09-29T14:44:27;4.63;;;4.10;;
9328;SDS011;4703;48.748;19.142;2022-09-29T14:50:13;5.43;;;3.80;;
9328;SDS011;4703;48.748;19.142;2022-09-29T14:59:32;3.73;;;3.43;;
9328;SDS011;4703;48.748;19.142;2022-09-29T15:02:29;5.27;;;4.77;;
9328;SDS011;4703;48.748;19.142;2022-09-29T15:04:59;5.33;;;4.23;;
9328;SDS011;4703;48.748;19.142;2022-09-29T15:07:40;4.90;;;4.50;;
9328;SDS011;4703;48.748;19.142;2022-09-29T15:10:22;5.70;;;4.20;;
9328;SDS011;4703;48.748;19.142;2022-09-29T15:13:18;4.73;;;4.30;;
9328;SDS011;4703;48.748;19.142;2022-09-29T15:16:10;4.87;;;4.37;;
9328;SDS011;4703;48.748;19.142;2022-09-29T15:21:42;4.30;;;3.70;;
9328;SDS011;4703;48.748;19.142;2022-09-29T15:27:35;4.73;;;4.33;;
9328;SDS011;4703;48.748;19.142;2022-09-29T15:30:04;4.93;;;4.43;;
9328;SDS011;4703;48.748;19.142;2022-09-29T15:32:39;4.40;;;3.63;;
9328;SDS011;4703;48.748;19.142;2022-09-29T15:35:06;4.47;;;4.07;;
9328;SDS011;4703;48.748;19.142;2022-09-29T15:40:16;4.53;;;4.13;;
9328;SDS011;4703;48.748;19.142;2022-09-29T15:42:46;4.13;;;3.77;;
9328;SDS011;4703;48.748;19.142;2022-09-29T15:45:18;3.83;;;3.50;;
9328;SDS011;4703;48.748;19.142;2022-09-29T15:47:56;4.33;;;3.93;;
9328;SDS011;4703;48.748;19.142;2022-09-29T15:50:31;4.40;;;3.60;;
9328;SDS011;4703;48.748;19.142;2022-09-29T15:53:07;3.33;;;3.13;;
9328;SDS011;4703;48.748;19.142;2022-09-29T15:55:36;3.10;;;2.87;;
9328;SDS011;4703;48.748;19.142;2022-09-29T16:08:55;3.70;;;3.40;;
9328;SDS011;4703;48.748;19.142;2022-09-29T16:11:31;3.60;;;3.30;;
9328;SDS011;4703;48.748;19.142;2022-09-29T16:14:02;3.90;;;3.60;;
9328;SDS011;4703;48.748;19.142;2022-09-29T16:16:41;3.17;;;2.90;;
9328;SDS011;4703;48.748;19.142;2022-09-29T16:19:22;3.40;;;3.10;;
9328;SDS011;4703;48.748;19.142;2022-09-29T16:21:57;4.40;;;4.00;;
9328;SDS011;4703;48.748;19.142;2022-09-29T16:24:29;4.03;;;3.73;;
9328;SDS011;4703;48.748;19.142;2022-09-29T16:27:02;4.50;;;4.10;;
9328;SDS011;4703;48.748;19.142;2022-09-29T16:29:32;4.47;;;4.07;;
9328;SDS011;4703;48.748;19.142;2022-09-29T16:32:34;4.57;;;4.17;;
9328;SDS011;4703;48.748;19.142;2022-09-29T16:38:13;6.00;;;5.40;;
9328;SDS011;4703;48.748;19.142;2022-09-29T16:40:49;8.77;;;6.40;;
9328;SDS011;4703;48.748;19.142;2022-09-29T16:43:23;6.60;;;6.00;;
9328;SDS011;4703;48.748;19.142;2022-09-29T16:45:58;6.93;;;6.33;;
9328;SDS011;4703;48.748;19.142;2022-09-29T16:48:28;8.33;;;5.40;;
9328;SDS011;4703;48.748;19.142;2022-09-29T16:50:58;7.50;;;6.73;;
9328;SDS011;4703;48.748;19.142;2022-09-29T16:53:33;9.40;;;8.23;;
9328;SDS011;4703;48.748;19.142;2022-09-29T16:56:02;10.03;;;7.50;;
9328;SDS011;4703;48.748;19.142;2022-09-29T17:01:38;9.70;;;7.07;;
9328;SDS011;4703;48.748;19.142;2022-09-29T17:04:09;10.40;;;9.20;;
9328;SDS011;4703;48.748;19.142;2022-09-29T17:06:37;10.07;;;9.10;;
9328;SDS011;4703;48.748;19.142;2022-09-29T17:09:11;10.40;;;9.30;;
9328;SDS011;4703;48.748;19.142;2022-09-29T17:11:45;11.30;;;10.30;;
9328;SDS011;4703;48.748;19.142;2022-09-29T17:14:15;11.30;;;10.30;;
9328;SDS011;4703;48.748;19.142;2022-09-29T17:16:44;12.20;;;10.90;;
9328;SDS011;4703;48.748;19.142;2022-09-29T17:19:11;12.20;;;10.30;;
9328;SDS011;4703;48.748;19.142;2022-09-29T17:21:38;14.97;;;12.43;;
9328;SDS011;4703;48.748;19.142;2022-09-29T17:24:05;14.20;;;12.70;;
9328;SDS011;4703;48.748;19.142;2022-09-29T17:26:36;13.60;;;12.20;;
9328;SDS011;4703;48.748;19.142;2022-09-29T17:29:29;14.57;;;13.07;;
9328;SDS011;4703;48.748;19.142;2022-09-29T17:31:57;15.87;;;14.23;;
9328;SDS011;4703;48.748;19.142;2022-09-29T17:34:24;15.90;;;14.37;;
9328;SDS011;4703;48.748;19.142;2022-09-29T17:36:57;18.73;;;15.00;;
9328;SDS011;4703;48.748;19.142;2022-09-29T17:39:27;16.13;;;14.43;;
9328;SDS011;4703;48.748;19.142;2022-09-29T17:41:54;16.37;;;14.67;;
9328;SDS011;4703;48.748;19.142;2022-09-29T17:44:21;16.10;;;14.50;;
9328;SDS011;4703;48.748;19.142;2022-09-29T17:46:48;18.13;;;16.33;;
9328;SDS011;4703;48.748;19.142;2022-09-29T17:49:22;19.67;;;17.57;;
9328;SDS011;4703;48.748;19.142;2022-09-29T17:51:50;19.90;;;17.80;;
9328;SDS011;4703;48.748;19.142;2022-09-29T17:54:17;20.47;;;18.37;;
9328;SDS011;4703;48.748;19.142;2022-09-29T17:56:44;20.20;;;17.27;;
9328;SDS011;4703;48.748;19.142;2022-09-29T17:59:11;19.37;;;14.70;;
9328;SDS011;4703;48.748;19.142;2022-09-29T18:01:39;16.53;;;14.83;;
9328;SDS011;4703;48.748;19.142;2022-09-29T18:04:06;15.83;;;14.10;;
9328;SDS011;4703;48.748;19.142;2022-09-29T18:06:34;14.77;;;13.30;;
9328;SDS011;4703;48.748;19.142;2022-09-29T18:09:13;13.10;;;11.80;;
9328;SDS011;4703;48.748;19.142;2022-09-29T18:11:43;13.80;;;11.57;;
9328;SDS011;4703;48.748;19.142;2022-09-29T18:14:10;12.20;;;11.00;;
9328;SDS011;4703;48.748;19.142;2022-09-29T18:16:37;12.27;;;10.47;;
9328;SDS011;4703;48.748;19.142;2022-09-29T18:19:05;13.10;;;11.70;;
9328;SDS011;4703;48.748;19.142;2022-09-29T18:21:42;12.90;;;11.60;;
9328;SDS011;4703;48.748;19.142;2022-09-29T18:24:09;13.63;;;12.23;;
9328;SDS011;4703;48.748;19.142;2022-09-29T18:26:36;12.27;;;10.97;;
9328;SDS011;4703;48.748;19.142;2022-09-29T18:29:16;11.93;;;10.83;;
9328;SDS011;4703;48.748;19.142;2022-09-29T18:31:44;11.80;;;10.60;;
9328;SDS011;4703;48.748;19.142;2022-09-29T18:34:12;11.90;;;10.70;;
9328;SDS011;4703;48.748;19.142;2022-09-29T18:36:42;13.30;;;11.93;;
9328;SDS011;4703;48.748;19.142;2022-09-29T18:39:12;12.90;;;11.60;;
9328;SDS011;4703;48.748;19.142;2022-09-29T18:41:39;14.33;;;12.83;;
9328;SDS011;4703;48.748;19.142;2022-09-29T18:44:13;13.20;;;11.60;;
9328;SDS011;4703;48.748;19.142;2022-09-29T18:46:43;13.37;;;12.07;;
9328;SDS011;4703;48.748;19.142;2022-09-29T18:49:11;12.50;;;11.20;;
9328;SDS011;4703;48.748;19.142;2022-09-29T18:51:39;12.13;;;10.93;;
9328;SDS011;4703;48.748;19.142;2022-09-29T18:54:07;14.83;;;11.80;;
9328;SDS011;4703;48.748;19.142;2022-09-29T18:56:34;13.17;;;11.87;;
9328;SDS011;4703;48.748;19.142;2022-09-29T18:59:01;13.03;;;11.73;;
9328;SDS011;4703;48.748;19.142;2022-09-29T19:01:31;11.70;;;10.60;;
9328;SDS011;4703;48.748;19.142;2022-09-29T19:03:58;13.23;;;11.93;;
9328;SDS011;4703;48.748;19.142;2022-09-29T19:06:25;13.07;;;11.83;;
9328;SDS011;4703;48.748;19.142;2022-09-29T19:08:52;13.73;;;12.00;;
9328;SDS011;4703;48.748;19.142;2022-09-29T19:11:21;14.00;;;12.50;;
9328;SDS011;4703;48.748;19.142;2022-09-29T19:13:51;15.03;;;13.43;;
9328;SDS011;4703;48.748;19.142;2022-09-29T19:16:21;13.10;;;11.87;;
9328;SDS011;4703;48.748;19.142;2022-09-29T19:18:49;13.90;;;12.53;;
9328;SDS011;4703;48.748;19.142;2022-09-29T19:21:16;15.20;;;11.90;;
9328;SDS011;4703;48.748;19.142;2022-09-29T19:23:43;12.70;;;11.57;;